Time;durP1;ratioP1;P1;durP2;ratioP2;P2;SDS_P1;SDS_P2;PMS_P1;PMS_P2;Temp;Humidity;BMP_temperature;BMP_pressure;BME280_temperature;BME280_humidity;BME280_pressure;Samples;Min_cycle;Max_cycle;Signal;HPM_P1;HPM_P2
2021/05/01 05:12:42;;;;;;;60.20;48.40;;;9.30;99.90;;;;;;5048946;28;20799;-91
2021/05/01 05:15:09;;;;;;;55.03;43.27;;;9.40;99.90;;;;;;5056483;28;20465;-90
2021/05/01 05:17:36;;;;;;;56.50;43.70;;;9.50;99.90;;;;;;5055358;28;20440;-90
2021/05/01 05:20:03;;;;;;;54.37;44.40;;;9.60;99.90;;;;;;5060223;28;20437;-94
2021/05/01 05:22:29;;;;;;;59.17;43.97;;;9.60;99.90;;;;;;5069821;22;20559;-84
2021/05/01 05:24:56;;;;;;;55.00;42.80;;;9.60;99.90;;;;;;5061428;28;20437;-85
2021/05/01 05:27:22;;;;;;;56.20;46.57;;;9.60;99.90;;;;;;5061895;28;20439;-84
2021/05/01 05:29:50;;;;;;;54.03;41.83;;;9.60;99.90;;;;;;5064730;28;20928;-83
2021/05/01 05:32:18;;;;;;;51.60;41.80;;;9.70;99.90;;;;;;5059314;28;20472;-87
2021/05/01 05:34:44;;;;;;;49.90;41.97;;;9.60;99.90;;;;;;5054719;28;20441;-87
2021/05/01 05:37:11;;;;;;;53.37;41.93;;;9.60;99.90;;;;;;5055364;28;20453;-87
2021/05/01 05:39:40;;;;;;;53.80;42.53;;;9.70;99.90;;;;;;5054996;28;20444;-87
2021/05/01 05:42:08;;;;;;;56.57;42.83;;;9.90;99.90;;;;;;5055361;28;20861;-87
2021/05/01 05:44:35;;;;;;;48.50;39.53;;;10.20;99.90;;;;;;5055039;28;20506;-87
2021/05/01 05:47:02;;;;;;;55.07;42.43;;;10.40;99.90;;;;;;5056137;28;20545;-86
2021/05/01 05:49:28;;;;;;;51.50;41.90;;;10.60;99.90;;;;;;5055172;28;20491;-87
2021/05/01 05:51:54;;;;;;;50.50;40.30;;;10.90;99.90;;;;;;5066304;28;20498;-87
2021/05/01 05:54:21;;;;;;;46.73;38.70;;;11.30;99.90;;;;;;5075901;28;20453;-87
2021/05/01 05:56:47;;;;;;;44.77;37.87;;;11.60;99.90;;;;;;5063123;28;20460;-87
2021/05/01 05:59:13;;;;;;;44.77;39.97;;;11.80;99.90;;;;;;5069228;28;20486;-88
2021/05/01 06:01:46;;;;;;;44.23;39.50;;;12.10;99.90;;;;;;5058979;28;20449;-87
2021/05/01 06:04:16;;;;;;;48.17;41.00;;;12.30;99.90;;;;;;5055108;28;20459;-88
2021/05/01 06:06:54;;;;;;;44.03;39.30;;;12.50;99.90;;;;;;5054929;28;20483;-87
2021/05/01 06:09:21;;;;;;;48.90;39.43;;;12.60;99.90;;;;;;5060570;28;20450;-87
2021/05/01 06:11:49;;;;;;;40.63;36.23;;;12.60;99.90;;;;;;5068735;28;20477;-87
2021/05/01 06:14:18;;;;;;;45.50;38.70;;;12.30;99.90;;;;;;5076837;28;20448;-87
2021/05/01 06:16:45;;;;;;;44.67;38.77;;;12.20;99.90;;;;;;5073814;28;20521;-87
2021/05/01 06:19:15;;;;;;;48.10;39.80;;;12.10;99.90;;;;;;5049414;28;20461;-87
2021/05/01 06:21:42;;;;;;;42.83;38.20;;;12.00;99.90;;;;;;5040631;28;20449;-87
2021/05/01 06:24:16;;;;;;;43.10;37.10;;;11.90;99.90;;;;;;5019958;28;20446;-86
2021/05/01 06:26:46;;;;;;;41.67;36.80;;;11.90;99.90;;;;;;5016062;28;20461;-88
2021/05/01 06:29:18;;;;;;;44.07;38.17;;;11.90;99.90;;;;;;5021024;28;20456;-87
2021/05/01 06:32:04;;;;;;;45.10;37.73;;;12.00;99.90;;;;;;5033513;28;20535;-87
2021/05/01 06:34:49;;;;;;;44.57;38.47;;;11.90;99.90;;;;;;5045421;28;20460;-86
2021/05/01 06:37:16;;;;;;;40.90;36.50;;;12.00;99.90;;;;;;5048808;28;20437;-87
2021/05/01 06:40:00;;;;;;;39.67;35.43;;;12.10;99.90;;;;;;5040190;28;20449;-86
2021/05/01 06:42:30;;;;;;;42.13;35.37;;;12.20;99.90;;;;;;5041183;28;20500;-88
2021/05/01 06:45:08;;;;;;;39.17;34.60;;;12.50;99.90;;;;;;5044644;28;20453;-85
2021/05/01 06:47:48;;;;;;;41.77;37.40;;;12.60;99.90;;;;;;5056608;28;20459;-87
2021/05/01 06:50:18;;;;;;;42.23;37.67;;;12.70;99.90;;;;;;5062003;28;20499;-86
2021/05/01 06:55:40;;;;;;;38.60;34.50;;;12.70;99.50;;;;;;5064747;28;20432;-85
2021/05/01 06:58:16;;;;;;;39.33;35.03;;;12.60;99.40;;;;;;5058483;28;20417;-88
2021/05/01 07:00:50;;;;;;;40.83;36.53;;;12.50;99.50;;;;;;5058025;28;20436;-88
2021/05/01 07:03:18;;;;;;;41.33;35.10;;;12.40;99.60;;;;;;5056708;28;21067;-86
2021/05/01 07:05:48;;;;;;;38.53;34.27;;;12.30;99.60;;;;;;5051836;28;20485;-87
2021/05/01 07:08:14;;;;;;;40.23;36.10;;;12.30;99.60;;;;;;5047866;28;20536;-87
2021/05/01 07:10:41;;;;;;;40.87;36.43;;;12.40;99.70;;;;;;5040652;28;20576;-87
2021/05/01 07:13:14;;;;;;;41.93;35.20;;;12.50;99.40;;;;;;5036359;28;20465;-88
2021/05/01 07:15:41;;;;;;;38.33;34.17;;;12.50;99.40;;;;;;5043154;28;20458;-88
2021/05/01 07:18:10;;;;;;;39.73;35.50;;;12.70;99.20;;;;;;5043859;28;20453;-85
2021/05/01 07:20:37;;;;;;;38.00;34.00;;;12.70;98.60;;;;;;5052246;28;20501;-87
2021/05/01 07:23:05;;;;;;;42.10;35.97;;;12.70;98.20;;;;;;5052809;28;20524;-87
2021/05/01 07:25:40;;;;;;;40.10;36.00;;;12.70;98.00;;;;;;5056584;28;20505;-87
2021/05/01 07:28:12;;;;;;;37.10;33.20;;;12.80;97.40;;;;;;5054321;28;20450;-87
2021/05/01 07:30:53;;;;;;;36.83;32.93;;;12.90;96.90;;;;;;5072600;28;20568;-87
2021/05/01 07:33:25;;;;;;;36.40;32.70;;;12.90;96.60;;;;;;5074130;28;20488;-87
2021/05/01 07:36:05;;;;;;;31.90;28.70;;;12.90;96.60;;;;;;5076416;28;20438;-87
2021/05/01 07:38:46;;;;;;;31.70;28.33;;;12.70;95.80;;;;;;5073015;28;20554;-87
2021/05/01 07:41:29;;;;;;;30.10;27.20;;;12.60;95.80;;;;;;5055857;28;20550;-86
2021/05/01 07:44:20;;;;;;;32.80;29.47;;;12.30;95.40;;;;;;5056318;28;20460;-88
2021/05/01 07:46:48;;;;;;;32.30;28.87;;;12.40;95.90;;;;;;5061412;28;20478;-88
2021/05/01 07:49:19;;;;;;;32.57;29.27;;;12.30;95.90;;;;;;5061915;28;20441;-88
2021/05/01 07:51:46;;;;;;;31.93;28.80;;;12.30;96.00;;;;;;5061077;28;20520;-88
2021/05/01 07:54:20;;;;;;;33.90;30.30;;;12.30;96.20;;;;;;5069497;28;20452;-87
2021/05/01 07:56:53;;;;;;;35.47;31.63;;;12.30;96.40;;;;;;5073392;28;20458;-88
2021/05/01 07:59:19;;;;;;;39.37;33.33;;;12.20;96.40;;;;;;5076033;28;20455;-87
2021/05/01 08:01:48;;;;;;;31.07;27.77;;;12.20;96.60;;;;;;5080430;28;20464;-87
2021/05/01 08:04:15;;;;;;;32.37;28.97;;;12.00;95.80;;;;;;5081115;28;20731;-87
2021/05/01 08:06:42;;;;;;;31.33;28.03;;;11.60;96.20;;;;;;5077905;28;20455;-87
2021/05/01 08:09:18;;;;;;;33.00;29.50;;;11.40;96.80;;;;;;5066245;28;20490;-87
2021/05/01 08:11:49;;;;;;;35.40;31.80;;;11.60;97.50;;;;;;5065883;28;20475;-86
2021/05/01 08:14:18;;;;;;;36.13;30.43;;;11.60;97.40;;;;;;5064299;28;21040;-86
2021/05/01 08:16:44;;;;;;;32.87;28.50;;;11.60;97.20;;;;;;5053037;28;20491;-88
2021/05/01 08:19:33;;;;;;;32.10;28.70;;;11.70;97.30;;;;;;5054573;28;20422;-87
2021/05/01 08:22:05;;;;;;;32.37;28.63;;;11.70;97.00;;;;;;5059721;28;20483;-87
2021/05/01 08:24:39;;;;;;;31.57;28.20;;;11.80;97.00;;;;;;5056868;28;20418;-88
2021/05/01 08:27:13;;;;;;;34.07;30.60;;;11.80;96.80;;;;;;5056852;28;20444;-87
2021/05/01 08:29:42;;;;;;;33.87;30.00;;;11.80;96.70;;;;;;5045599;28;20485;-87
2021/05/01 08:32:13;;;;;;;34.80;31.10;;;11.80;96.30;;;;;;5042003;28;20480;-86
2021/05/01 08:34:41;;;;;;;33.47;29.87;;;11.80;96.50;;;;;;5040928;28;20458;-88
2021/05/01 08:37:17;;;;;;;33.37;29.97;;;11.90;96.60;;;;;;5042615;28;20438;-87
2021/05/01 08:39:46;;;;;;;32.57;29.07;;;12.00;96.40;;;;;;5041141;28;20507;-86
2021/05/01 08:42:19;;;;;;;29.83;26.60;;;12.00;96.40;;;;;;5041134;28;20445;-87
2021/05/01 08:45:00;;;;;;;30.60;27.53;;;12.10;96.20;;;;;;5052130;28;20542;-88
2021/05/01 08:47:48;;;;;;;28.30;25.37;;;12.10;95.40;;;;;;5061435;28;20479;-87
2021/05/01 08:50:39;;;;;;;30.93;27.60;;;12.20;95.40;;;;;;5071188;28;20483;-87
2021/05/01 08:53:19;;;;;;;31.10;27.80;;;12.40;95.10;;;;;;5064573;28;20469;-86
2021/05/01 08:55:48;;;;;;;28.87;25.87;;;12.60;94.60;;;;;;5064517;28;20443;-88
2021/05/01 08:58:21;;;;;;;28.83;26.03;;;12.70;94.40;;;;;;5060733;28;20513;-86
2021/05/01 09:00:51;;;;;;;29.83;27.00;;;12.80;93.90;;;;;;5064874;28;20444;-87
2021/05/01 09:03:21;;;;;;;29.30;26.50;;;13.00;93.60;;;;;;5054973;28;20562;-87
2021/05/01 09:05:51;;;;;;;29.73;26.73;;;13.00;93.00;;;;;;5039255;28;20441;-88
2021/05/01 09:08:33;;;;;;;29.43;26.40;;;13.00;92.90;;;;;;5021085;28;20457;-86
2021/05/01 09:11:17;;;;;;;29.70;26.70;;;12.90;93.00;;;;;;5020599;28;20477;-86
2021/05/01 09:14:01;;;;;;;29.17;26.37;;;13.00;93.40;;;;;;5019973;28;20569;-88
2021/05/01 09:16:33;;;;;;;29.70;26.70;;;13.20;92.80;;;;;;5051877;28;20936;-87
2021/05/01 09:19:02;;;;;;;32.03;28.73;;;13.30;93.00;;;;;;5059092;28;20860;-87
2021/05/01 09:21:41;;;;;;;34.07;30.53;;;13.40;92.30;;;;;;5059891;28;20448;-86
2021/05/01 09:24:26;;;;;;;28.93;26.17;;;13.60;91.80;;;;;;5065243;28;20454;-87
2021/05/01 09:30:16;;;;;;;29.50;26.60;;;14.10;90.80;;;;;;5068913;28;20442;-88
2021/05/01 09:33:08;;;;;;;27.90;25.00;;;14.20;90.40;;;;;;4998651;28;20542;-90
2021/05/01 09:36:15;;;;;;;33.23;29.80;;;14.20;90.00;;;;;;5055940;28;20447;-87
2021/05/01 09:45:43;;;;;;;;;;;;;;;;;;;;;
2021/05/01 09:49:05;;;;;;;31.30;28.10;;;14.30;89.10;;;;;;5044394;28;20438;-87
2021/05/01 09:52:28;;;;;;;;;;;;;;;;;;;;;
2021/05/01 09:55:28;;;;;;;32.50;29.20;;;14.50;88.70;;;;;;5051989;28;20464;-86
2021/05/01 09:57:57;;;;;;;33.40;30.10;;;14.80;87.80;;;;;;4964241;29;20442;-87
2021/05/01 10:00:57;;;;;;;30.63;27.20;;;14.70;86.90;;;;;;5054572;28;20462;-86
2021/05/01 10:03:26;;;;;;;33.60;30.10;;;15.00;87.20;;;;;;5049658;28;20462;-85
2021/05/01 10:05:58;;;;;;;35.00;31.70;;;15.10;85.30;;;;;;5046746;28;20442;-87
2021/05/01 10:08:33;;;;;;;36.40;32.67;;;15.20;84.40;;;;;;5042858;28;20931;-84
2021/05/01 10:11:08;;;;;;;33.63;30.27;;;15.20;84.40;;;;;;5025736;28;20480;-85
2021/05/01 10:13:46;;;;;;;34.40;30.73;;;15.30;84.60;;;;;;5048093;28;20465;-84
2021/05/01 10:16:13;;;;;;;34.93;31.60;;;15.60;84.30;;;;;;5047372;28;20425;-85
2021/05/01 10:19:00;;;;;;;32.47;29.37;;;16.60;83.00;;;;;;5045831;28;20451;-85
2021/05/01 10:21:27;;;;;;;35.57;32.00;;;17.50;78.60;;;;;;5032473;28;20438;-86
2021/05/01 10:23:56;;;;;;;33.90;30.63;;;17.80;75.60;;;;;;5042432;28;20495;-86
2021/05/01 10:26:22;;;;;;;35.63;32.10;;;17.90;74.30;;;;;;5054889;28;20436;-86
2021/05/01 10:28:50;;;;;;;35.73;32.33;;;18.20;74.10;;;;;;5056799;28;20936;-85
2021/05/01 10:31:19;;;;;;;34.03;30.83;;;18.00;72.60;;;;;;5051082;28;20534;-84
2021/05/01 10:34:20;;;;;;;33.23;30.17;;;17.50;73.40;;;;;;5043399;28;20470;-85
2021/05/01 10:36:48;;;;;;;33.90;30.60;;;17.30;75.20;;;;;;5042367;28;20445;-84
2021/05/01 10:39:15;;;;;;;32.93;29.73;;;17.00;75.10;;;;;;5042331;28;20434;-86
2021/05/01 10:41:55;;;;;;;32.37;29.27;;;16.90;74.80;;;;;;5041747;28;20806;-85
2021/05/01 10:44:21;;;;;;;34.00;30.50;;;16.90;76.20;;;;;;5042354;28;20771;-85
2021/05/01 10:46:48;;;;;;;33.80;30.60;;;16.80;76.00;;;;;;5039889;28;20505;-85
2021/05/01 10:49:17;;;;;;;33.53;30.27;;;17.00;76.30;;;;;;5038760;28;20509;-85
2021/05/01 10:51:45;;;;;;;34.67;31.20;;;16.90;76.00;;;;;;5039248;28;20480;-85
2021/05/01 10:54:13;;;;;;;35.30;31.90;;;17.00;76.80;;;;;;5039698;28;20487;-86
2021/05/01 10:56:44;;;;;;;34.00;30.60;;;17.10;76.30;;;;;;5040139;28;20835;-85
2021/05/01 10:59:13;;;;;;;37.13;33.53;;;16.80;76.50;;;;;;5040124;28;20682;-85
2021/05/01 11:01:48;;;;;;;33.20;29.70;;;16.30;77.10;;;;;;5039883;28;20797;-85
2021/05/01 11:04:19;;;;;;;33.57;30.40;;;16.10;78.10;;;;;;5036364;28;20439;-85
2021/05/01 11:06:56;;;;;;;35.77;31.10;;;15.80;78.80;;;;;;5044396;28;20433;-85
2021/05/01 11:09:34;;;;;;;34.60;31.10;;;15.60;80.30;;;;;;5039499;28;20521;-85
2021/05/01 11:12:01;;;;;;;33.23;29.73;;;15.50;80.20;;;;;;5042163;28;20486;-85
2021/05/01 11:14:31;;;;;;;34.73;31.50;;;15.30;81.00;;;;;;5042662;28;20511;-86
2021/05/01 11:17:11;;;;;;;37.77;33.90;;;15.10;81.90;;;;;;5042152;28;20447;-86
2021/05/01 11:19:48;;;;;;;35.00;31.13;;;15.10;82.70;;;;;;5039551;28;20433;-86
2021/05/01 11:22:15;;;;;;;32.90;29.60;;;15.40;83.00;;;;;;5039045;28;20508;-86
2021/05/01 11:24:43;;;;;;;33.00;29.50;;;15.50;81.80;;;;;;5037473;28;20427;-85
2021/05/01 11:27:10;;;;;;;34.67;31.17;;;15.50;82.00;;;;;;5038848;28;20430;-84
2021/05/01 11:29:38;;;;;;;32.73;29.50;;;15.60;82.10;;;;;;5038886;28;20446;-85
2021/05/01 11:32:05;;;;;;;35.47;32.00;;;15.50;82.10;;;;;;5037804;28;20867;-86
2021/05/01 11:34:33;;;;;;;32.43;29.10;;;15.50;83.20;;;;;;5037184;28;20440;-85
2021/05/01 11:37:03;;;;;;;31.87;28.77;;;15.00;84.40;;;;;;5040985;28;20999;-86
2021/05/01 11:39:30;;;;;;;35.73;32.13;;;14.90;85.60;;;;;;5042212;28;20433;-86
2021/05/01 11:41:58;;;;;;;33.77;30.57;;;14.70;85.00;;;;;;5036362;28;20496;-86
2021/05/01 11:44:26;;;;;;;36.20;32.40;;;14.80;85.90;;;;;;5037630;28;20441;-85
2021/05/01 11:46:58;;;;;;;35.03;31.60;;;14.80;85.50;;;;;;5036151;28;20838;-85
2021/05/01 11:49:26;;;;;;;35.53;32.23;;;15.10;85.40;;;;;;5033879;28;20546;-85
2021/05/01 11:52:35;;;;;;;35.40;31.70;;;15.10;84.30;;;;;;5038006;28;20490;-85
2021/05/01 11:55:13;;;;;;;33.97;30.60;;;15.50;84.60;;;;;;4986338;28;20468;-86
2021/05/01 11:57:44;;;;;;;34.07;30.40;;;15.50;83.40;;;;;;5038964;28;20457;-85
2021/05/01 12:00:13;;;;;;;35.43;31.77;;;15.60;83.10;;;;;;5051168;28;20438;-85
2021/05/01 12:02:41;;;;;;;33.87;30.37;;;15.90;82.90;;;;;;5039968;28;20472;-85
2021/05/01 12:05:18;;;;;;;34.03;30.63;;;16.10;81.40;;;;;;5046113;28;20505;-85
2021/05/01 12:07:48;;;;;;;34.50;31.20;;;16.20;80.50;;;;;;5045854;28;20444;-85
2021/05/01 12:10:16;;;;;;;33.97;30.47;;;16.40;80.30;;;;;;5045694;28;20463;-85
2021/05/01 12:12:48;;;;;;;34.63;31.30;;;16.10;79.00;;;;;;5043548;28;20524;-85
2021/05/01 12:15:16;;;;;;;35.00;31.70;;;16.30;80.20;;;;;;5038609;28;20445;-85
2021/05/01 12:17:51;;;;;;;33.50;30.20;;;16.40;79.30;;;;;;5041550;28;20444;-84
2021/05/01 12:20:21;;;;;;;33.97;30.80;;;16.40;79.10;;;;;;5040619;28;20966;-84
2021/05/01 12:22:48;;;;;;;31.50;28.30;;;16.40;78.70;;;;;;5039688;28;20502;-85
2021/05/01 12:25:39;;;;;;;33.77;30.40;;;16.30;79.20;;;;;;5038552;28;20432;-84
2021/05/01 12:28:06;;;;;;;33.67;30.37;;;16.20;78.80;;;;;;5038004;28;20441;-85
2021/05/01 12:30:50;;;;;;;31.97;28.70;;;16.10;79.80;;;;;;5045636;28;20482;-85
2021/05/01 12:33:24;;;;;;;33.50;30.17;;;16.20;81.20;;;;;;5053272;28;20456;-85
2021/05/01 12:35:52;;;;;;;31.33;28.50;;;16.40;78.80;;;;;;5058280;28;20494;-85
2021/05/01 12:38:22;;;;;;;35.57;32.07;;;16.40;78.50;;;;;;5058096;28;20433;-84
2021/05/01 12:40:48;;;;;;;32.80;29.53;;;16.50;78.70;;;;;;5052400;28;20471;-85
2021/05/01 12:43:45;;;;;;;34.23;30.83;;;16.40;78.50;;;;;;5047250;28;20472;-85
2021/05/01 12:46:15;;;;;;;34.00;30.60;;;16.30;78.70;;;;;;4989645;28;20977;-85
2021/05/01 12:48:47;;;;;;;33.63;30.20;;;16.10;78.50;;;;;;5041157;28;20436;-85
2021/05/01 12:51:15;;;;;;;31.53;28.50;;;16.20;78.30;;;;;;5047119;28;20486;-86
2021/05/01 12:53:43;;;;;;;30.83;27.77;;;16.30;78.60;;;;;;5042444;28;20465;-85
2021/05/01 12:56:20;;;;;;;32.00;29.10;;;16.30;78.70;;;;;;5037904;28;20445;-84
2021/05/01 12:58:47;;;;;;;29.47;26.67;;;16.00;79.20;;;;;;5038960;28;20460;-84
2021/05/01 13:01:24;;;;;;;35.27;31.73;;;16.00;80.70;;;;;;5049486;28;20451;-85
2021/05/01 13:04:14;;;;;;;33.93;30.67;;;15.90;80.10;;;;;;5048382;28;20460;-85
2021/05/01 13:06:43;;;;;;;33.57;30.37;;;15.70;79.60;;;;;;5042940;28;20452;-85
2021/05/01 13:09:12;;;;;;;32.57;29.17;;;15.60;79.80;;;;;;5043503;28;20452;-86
2021/05/01 13:11:38;;;;;;;32.33;29.00;;;15.50;80.30;;;;;;5059401;22;20501;-85
2021/05/01 13:14:15;;;;;;;28.67;25.87;;;15.30;80.50;;;;;;5063870;28;20432;-85
2021/05/01 13:17:06;;;;;;;32.13;28.93;;;15.20;81.10;;;;;;5057882;28;20688;-86
2021/05/01 13:19:35;;;;;;;32.50;29.30;;;14.90;81.80;;;;;;5049321;28;20596;-85
2021/05/01 13:22:03;;;;;;;33.40;30.07;;;14.70;82.70;;;;;;5050874;28;20460;-85
2021/05/01 13:24:31;;;;;;;32.30;29.00;;;14.60;83.20;;;;;;5048215;28;21125;-85
2021/05/01 13:26:58;;;;;;;32.00;29.00;;;14.40;83.30;;;;;;5063702;28;20428;-85
2021/05/01 13:29:26;;;;;;;31.70;28.57;;;14.30;84.10;;;;;;5059654;28;20444;-86
2021/05/01 13:31:53;;;;;;;32.13;28.93;;;14.20;84.70;;;;;;5062130;28;20485;-86
2021/05/01 13:34:20;;;;;;;31.67;28.47;;;14.20;85.00;;;;;;5052828;28;20438;-86
2021/05/01 13:36:47;;;;;;;34.40;30.80;;;14.10;85.20;;;;;;5047250;28;20459;-85
2021/05/01 13:39:20;;;;;;;30.97;27.97;;;14.10;85.70;;;;;;5046116;28;20433;-86
2021/05/01 13:42:08;;;;;;;35.07;31.50;;;14.00;85.60;;;;;;5048827;28;20474;-85
2021/05/01 13:44:43;;;;;;;32.90;29.37;;;14.00;86.60;;;;;;5066744;28;20422;-84
2021/05/01 13:47:21;;;;;;;32.50;29.17;;;14.00;86.90;;;;;;5065802;28;20433;-85
2021/05/01 13:49:48;;;;;;;33.20;29.90;;;14.00;87.20;;;;;;5067884;28;20453;-83
2021/05/01 13:52:24;;;;;;;33.80;30.37;;;14.00;87.60;;;;;;5067313;28;20516;-84
2021/05/01 13:54:51;;;;;;;32.90;29.50;;;13.90;88.50;;;;;;5056360;28;20457;-86
2021/05/01 13:57:18;;;;;;;34.83;31.30;;;13.80;89.10;;;;;;5055748;28;20446;-86
2021/05/01 13:59:44;;;;;;;36.00;32.13;;;13.60;90.10;;;;;;5057666;28;20445;-86
2021/05/01 14:02:12;;;;;;;32.13;28.90;;;13.60;90.70;;;;;;5051569;28;20496;-85
2021/05/01 14:04:39;;;;;;;35.83;32.03;;;13.60;91.30;;;;;;5047182;28;20521;-85
2021/05/01 14:07:07;;;;;;;34.70;30.97;;;13.60;91.30;;;;;;5057317;28;20442;-87
2021/05/01 14:09:34;;;;;;;34.97;31.57;;;13.60;91.50;;;;;;5068247;28;20421;-85
2021/05/01 14:12:01;;;;;;;34.23;30.63;;;13.60;91.80;;;;;;5059454;28;20530;-86
2021/05/01 14:14:31;;;;;;;36.17;32.47;;;13.50;91.80;;;;;;5049189;28;20440;-86
2021/05/01 14:16:58;;;;;;;34.87;31.17;;;13.60;91.90;;;;;;5051620;28;20463;-85
2021/05/01 14:19:25;;;;;;;35.53;31.83;;;13.60;92.30;;;;;;5063355;28;20430;-85
2021/05/01 14:21:52;;;;;;;34.83;31.17;;;13.70;92.50;;;;;;5058238;28;20474;-86
2021/05/01 14:24:18;;;;;;;34.17;30.47;;;13.70;92.70;;;;;;5047222;28;20797;-86
2021/05/01 14:26:53;;;;;;;35.00;31.40;;;13.70;92.60;;;;;;5046670;28;20502;-86
2021/05/01 14:29:20;;;;;;;32.90;29.40;;;13.70;92.80;;;;;;5046106;28;20442;-85
2021/05/01 14:31:49;;;;;;;32.47;28.97;;;13.70;92.80;;;;;;5044321;28;20513;-85
2021/05/01 14:34:27;;;;;;;35.07;31.43;;;13.50;93.00;;;;;;5047533;28;20445;-87
2021/05/01 14:36:54;;;;;;;31.00;27.97;;;13.50;93.20;;;;;;5044988;28;20433;-85
2021/05/01 14:39:20;;;;;;;32.17;28.87;;;13.50;93.20;;;;;;5048675;28;20434;-85
2021/05/01 14:41:47;;;;;;;34.07;30.57;;;13.50;93.50;;;;;;5046820;28;20495;-86
2021/05/01 14:44:14;;;;;;;33.20;29.70;;;13.50;93.70;;;;;;5065089;28;20425;-85
2021/05/01 14:46:41;;;;;;;33.23;30.03;;;13.40;93.60;;;;;;5059049;28;20445;-88
2021/05/01 14:49:12;;;;;;;33.13;29.67;;;13.50;94.10;;;;;;5044378;28;20448;-87
2021/05/01 14:51:41;;;;;;;33.70;30.20;;;13.50;94.00;;;;;;5041485;28;20492;-87
2021/05/01 14:54:10;;;;;;;31.90;28.50;;;13.50;93.70;;;;;;5044402;28;20441;-86
2021/05/01 14:56:51;;;;;;;35.50;30.87;;;13.50;93.70;;;;;;5049648;28;20461;-87
2021/05/01 14:59:30;;;;;;;32.03;27.20;;;13.50;93.70;;;;;;5045234;28;21018;-87
2021/05/01 15:02:14;;;;;;;32.27;28.77;;;13.50;93.60;;;;;;5043734;28;20832;-86
2021/05/01 15:05:02;;;;;;;34.30;30.87;;;13.50;93.70;;;;;;5044993;28;20949;-87
2021/05/01 15:07:31;;;;;;;31.97;28.87;;;13.50;94.10;;;;;;5045117;28;20448;-86
2021/05/01 15:09:58;;;;;;;33.93;30.47;;;13.40;94.70;;;;;;5055116;28;20445;-86
2021/05/01 15:12:25;;;;;;;34.63;31.03;;;13.40;94.90;;;;;;5053670;28;20568;-86
2021/05/01 15:15:04;;;;;;;33.43;30.03;;;13.40;95.20;;;;;;5057829;28;20439;-85
2021/05/01 15:17:54;;;;;;;33.93;30.53;;;13.30;95.00;;;;;;5057639;28;20962;-84
2021/05/01 15:20:30;;;;;;;32.17;28.93;;;13.20;95.20;;;;;;5037454;28;20561;-85
2021/05/01 15:23:07;;;;;;;33.27;28.97;;;13.10;95.60;;;;;;5053986;28;20484;-86
2021/05/01 15:25:33;;;;;;;33.10;29.70;;;13.00;96.10;;;;;;5063797;28;20480;-85
2021/05/01 15:28:00;;;;;;;33.80;30.37;;;13.10;96.70;;;;;;5053572;28;20431;-88
2021/05/01 15:30:29;;;;;;;33.27;29.97;;;13.00;96.50;;;;;;5055374;28;20444;-88
2021/05/01 15:32:57;;;;;;;35.13;31.57;;;13.00;96.70;;;;;;5054627;28;20466;-85
2021/05/01 15:35:24;;;;;;;35.73;31.90;;;13.00;97.00;;;;;;5044935;28;20444;-86
2021/05/01 15:37:54;;;;;;;32.43;28.90;;;13.00;97.10;;;;;;5043941;28;20909;-86
2021/05/01 15:40:21;;;;;;;34.50;30.80;;;13.00;97.30;;;;;;5046277;28;20445;-86
2021/05/01 15:42:49;;;;;;;35.17;31.33;;;13.00;97.60;;;;;;5046502;28;20460;-86
2021/05/01 15:45:17;;;;;;;35.63;32.00;;;13.00;97.90;;;;;;5055867;28;20425;-86
2021/05/01 15:47:44;;;;;;;34.37;30.87;;;12.90;98.10;;;;;;5062541;28;20503;-85
2021/05/01 15:50:12;;;;;;;37.43;31.60;;;12.80;98.60;;;;;;5056320;28;20417;-84
2021/05/01 15:52:39;;;;;;;39.47;35.50;;;12.80;99.40;;;;;;5060549;28;20472;-86
2021/05/01 15:55:07;;;;;;;42.33;38.00;;;12.80;99.90;;;;;;5051739;28;20468;-86
2021/05/01 15:57:35;;;;;;;42.10;38.07;;;12.70;99.90;;;;;;5051822;28;20445;-86
2021/05/01 16:00:02;;;;;;;38.37;34.50;;;12.70;99.90;;;;;;5050881;28;20437;-86
2021/05/01 16:02:28;;;;;;;59.27;52.87;;;12.60;99.90;;;;;;5050120;28;20453;-87
2021/05/01 16:04:55;;;;;;;46.67;41.77;;;12.60;99.90;;;;;;5049485;28;20790;-87
2021/05/01 16:07:21;;;;;;;42.10;37.60;;;12.70;99.90;;;;;;5053857;28;20498;-87
2021/05/01 16:09:48;;;;;;;39.40;35.43;;;12.70;99.90;;;;;;5051783;28;20458;-85
2021/05/01 16:12:14;;;;;;;41.13;33.70;;;12.70;99.90;;;;;;5048754;28;20481;-86
2021/05/01 16:14:41;;;;;;;37.37;33.40;;;12.70;99.90;;;;;;5064589;28;20447;-86
2021/05/01 16:17:07;;;;;;;37.10;33.33;;;12.70;99.90;;;;;;5062609;28;20444;-86
2021/05/01 16:19:34;;;;;;;37.53;33.63;;;12.70;99.90;;;;;;5050714;28;20440;-86
2021/05/01 16:22:00;;;;;;;37.77;33.90;;;12.70;99.90;;;;;;5052345;28;20518;-86
2021/05/01 16:24:26;;;;;;;40.50;36.27;;;12.70;99.90;;;;;;5052228;28;20511;-86
2021/05/01 16:26:53;;;;;;;48.67;43.47;;;12.70;99.90;;;;;;5051357;28;20441;-86
2021/05/01 16:29:20;;;;;;;56.13;50.17;;;12.70;99.90;;;;;;5051068;28;20437;-87
2021/05/01 16:31:47;;;;;;;90.63;80.10;;;12.70;99.90;;;;;;5063249;28;20461;-85
2021/05/01 16:34:14;;;;;;;88.50;73.60;;;12.70;99.90;;;;;;5071404;28;20437;-85
2021/05/01 16:36:40;;;;;;;64.77;53.33;;;12.70;99.90;;;;;;5054248;28;20949;-86
2021/05/01 16:39:08;;;;;;;63.60;51.87;;;12.70;99.90;;;;;;5069299;28;20428;-84
2021/05/01 16:41:35;;;;;;;49.53;44.07;;;12.60;99.90;;;;;;5068705;28;20504;-86
2021/05/01 16:44:04;;;;;;;61.63;53.63;;;12.60;99.90;;;;;;5053669;28;20444;-85
2021/05/01 16:46:30;;;;;;;45.53;40.67;;;12.60;99.90;;;;;;5066437;28;20449;-86
2021/05/01 16:48:57;;;;;;;40.30;36.17;;;12.50;99.90;;;;;;5053380;28;20445;-86
2021/05/01 16:51:23;;;;;;;43.90;38.17;;;12.40;99.90;;;;;;5052957;28;20490;-86
2021/05/01 16:53:49;;;;;;;38.50;34.50;;;12.40;99.90;;;;;;5064979;28;20474;-85
2021/05/01 16:56:15;;;;;;;75.43;61.53;;;12.30;99.90;;;;;;5054410;28;20451;-86
2021/05/01 16:58:42;;;;;;;80.50;64.07;;;12.30;99.90;;;;;;5052084;28;20992;-86
2021/05/01 17:01:09;;;;;;;52.17;46.47;;;12.20;99.90;;;;;;5049956;28;20464;-86
2021/05/01 17:03:35;;;;;;;49.83;40.13;;;12.10;99.90;;;;;;5062000;28;20429;-85
2021/05/01 17:06:01;;;;;;;46.60;41.30;;;12.00;99.90;;;;;;5054213;28;20499;-86
2021/05/01 17:08:28;;;;;;;49.90;43.47;;;12.00;99.90;;;;;;5050115;28;20511;-86
2021/05/01 17:10:54;;;;;;;45.90;40.90;;;11.90;99.90;;;;;;5049986;28;20766;-86
2021/05/01 17:13:21;;;;;;;44.47;39.67;;;11.90;99.90;;;;;;5050047;28;20795;-85
2021/05/01 17:15:47;;;;;;;43.37;38.67;;;11.80;99.90;;;;;;5049513;28;20976;-85
2021/05/01 17:18:15;;;;;;;43.67;38.63;;;11.80;99.90;;;;;;5049038;28;20446;-86
2021/05/01 17:20:41;;;;;;;45.63;40.83;;;11.80;99.90;;;;;;5048641;28;20955;-85
2021/05/01 17:23:07;;;;;;;41.80;37.40;;;11.70;99.90;;;;;;5049488;28;20808;-85
2021/05/01 17:25:34;;;;;;;40.47;36.07;;;11.80;99.90;;;;;;5049796;28;20471;-86
2021/05/01 17:28:02;;;;;;;42.53;36.73;;;11.80;99.90;;;;;;5047443;28;20448;-87
2021/05/01 17:30:29;;;;;;;49.60;44.10;;;11.80;99.90;;;;;;5049634;28;20505;-86
2021/05/01 17:32:55;;;;;;;47.30;39.90;;;11.80;99.90;;;;;;5051058;28;20461;-87
2021/05/01 17:35:23;;;;;;;40.70;36.37;;;11.70;99.90;;;;;;5049957;28;20800;-86
2021/05/01 17:37:50;;;;;;;39.70;35.40;;;11.70;99.90;;;;;;5047954;28;21017;-87
2021/05/01 17:40:17;;;;;;;43.23;38.53;;;11.70;99.90;;;;;;5050132;28;20815;-86
2021/05/01 17:42:44;;;;;;;41.20;34.97;;;11.70;99.90;;;;;;5049467;28;20461;-86
2021/05/01 17:45:15;;;;;;;43.40;38.90;;;11.60;99.90;;;;;;5051592;28;20433;-86
2021/05/01 17:47:42;;;;;;;41.67;36.30;;;11.60;99.90;;;;;;5064592;28;20422;-86
2021/05/01 17:50:09;;;;;;;44.40;35.93;;;11.50;99.90;;;;;;5064076;28;20442;-86
2021/05/01 17:52:36;;;;;;;42.63;37.33;;;11.40;99.90;;;;;;5063263;28;20480;-87
2021/05/01 17:55:03;;;;;;;43.47;36.77;;;11.40;99.90;;;;;;5062727;28;20532;-86
2021/05/01 17:57:29;;;;;;;44.40;39.70;;;11.40;99.90;;;;;;5058127;28;20442;-86
2021/05/01 17:59:56;;;;;;;50.67;41.90;;;11.30;99.90;;;;;;5052187;28;20436;-86
2021/05/01 18:02:22;;;;;;;47.83;40.53;;;11.30;99.90;;;;;;5058874;28;20441;-85
2021/05/01 18:04:49;;;;;;;43.23;38.53;;;11.30;99.90;;;;;;5063724;28;20460;-86
2021/05/01 18:07:15;;;;;;;47.40;40.07;;;11.20;99.90;;;;;;5062390;28;20424;-85
2021/05/01 18:09:42;;;;;;;51.23;45.63;;;11.20;99.90;;;;;;5062161;28;20496;-86
2021/05/01 18:12:09;;;;;;;49.27;41.70;;;11.20;99.90;;;;;;5064706;28;20472;-85
2021/05/01 18:14:35;;;;;;;54.37;44.73;;;11.20;99.90;;;;;;5064608;28;20431;-86
2021/05/01 18:17:01;;;;;;;45.47;40.40;;;11.20;99.90;;;;;;5064113;28;20437;-86